Time;durP1;ratioP1;P1;durP2;ratioP2;P2;SDS_P1;SDS_P2;PMS_P1;PMS_P2;Temp;Humidity;BMP_temperature;BMP_pressure;BME280_temperature;BME280_humidity;BME280_pressure;Samples;Min_cycle;Max_cycle;Signal;HPM_P1;HPM_P2
2022/04/10 00:01:51;;;;;;;124.83;20.73;;;;;;;;;;4992341;28;20275;-69
2022/04/10 00:04:18;;;;;;;24.53;4.53;;;;;;;;;;4995347;28;20582;-72
2022/04/10 00:06:43;;;;;;;133.37;21.03;;;;;;;;;;4993872;28;20196;-69
2022/04/10 00:09:12;;;;;;;85.37;14.50;;;;;;;;;;4999036;28;20205;-68
2022/04/10 00:11:37;;;;;;;63.60;12.43;;;;;;;;;;5001088;28;20216;-70
2022/04/10 00:14:03;;;;;;;114.33;20.90;;;;;;;;;;4993131;28;20616;-69
2022/04/10 00:16:29;;;;;;;75.83;14.67;;;;;;;;;;4999324;28;20197;-71
2022/04/10 00:19:01;;;;;;;68.67;13.60;;;;;;;;;;4996963;28;20243;-68
2022/04/10 00:21:27;;;;;;;80.43;15.03;;;;;;;;;;4997067;28;20188;-68
2022/04/10 00:23:53;;;;;;;57.73;11.57;;;;;;;;;;4994593;28;20185;-72
2022/04/10 00:26:19;;;;;;;88.20;32.20;;;;;;;;;;4995494;28;20185;-69
2022/04/10 00:28:45;;;;;;;79.97;11.30;;;;;;;;;;4999813;28;20299;-71
2022/04/10 00:31:12;;;;;;;62.43;9.40;;;;;;;;;;4993778;28;20189;-71
2022/04/10 00:33:38;;;;;;;57.10;8.33;;;;;;;;;;4997325;28;20177;-68
2022/04/10 00:36:04;;;;;;;113.27;15.57;;;;;;;;;;4996199;28;20185;-68
2022/04/10 00:38:30;;;;;;;53.47;7.73;;;;;;;;;;5001995;28;20214;-69
2022/04/10 00:40:56;;;;;;;91.97;13.10;;;;;;;;;;5011562;28;20932;-68
2022/04/10 00:43:28;;;;;;;69.60;9.70;;;;;;;;;;4992662;28;20177;-68
2022/04/10 00:45:56;;;;;;;142.23;19.33;;;;;;;;;;4989791;28;20182;-71
2022/04/10 00:48:22;;;;;;;68.77;9.67;;;;;;;;;;5000132;28;20549;-69
2022/04/10 00:53:33;;;;;;;77.50;10.63;;;;;;;;;;4993893;28;20196;-68
2022/04/10 00:55:59;;;;;;;68.63;9.63;;;;;;;;;;5001305;28;20188;-68
2022/04/10 00:58:25;;;;;;;68.23;9.57;;;;;;;;;;4994049;28;20216;-70
2022/04/10 01:00:51;;;;;;;44.23;6.33;;;;;;;;;;5000123;28;20174;-69
2022/04/10 01:03:17;;;;;;;32.30;4.93;;;;;;;;;;5004427;28;20196;-68
2022/04/10 01:05:44;;;;;;;61.70;8.77;;;;;;;;;;4996368;28;20190;-69
2022/04/10 01:08:10;;;;;;;79.47;11.07;;;;;;;;;;4999956;28;20205;-69
2022/04/10 01:10:36;;;;;;;53.97;7.70;;;;;;;;;;4998174;28;20274;-70
2022/04/10 01:13:02;;;;;;;66.87;9.83;;;;;;;;;;4995182;28;20624;-69
2022/04/10 01:15:28;;;;;;;28.80;4.47;;;;;;;;;;4995808;28;20204;-71
2022/04/10 01:17:55;;;;;;;134.40;17.80;;;;;;;;;;4990556;28;20674;-70
2022/04/10 01:20:21;;;;;;;89.17;12.37;;;;;;;;;;4993113;28;20281;-71
2022/04/10 01:22:47;;;;;;;80.47;10.77;;;;;;;;;;5001486;28;20189;-68
2022/04/10 01:25:13;;;;;;;76.63;10.57;;;;;;;;;;5007132;28;20343;-69
2022/04/10 01:27:39;;;;;;;90.30;12.50;;;;;;;;;;4989999;28;20661;-69
2022/04/10 01:30:06;;;;;;;94.63;13.03;;;;;;;;;;4993314;28;20773;-72
2022/04/10 01:32:32;;;;;;;77.17;10.73;;;;;;;;;;4996378;28;20591;-69
2022/04/10 01:35:00;;;;;;;119.40;16.27;;;;;;;;;;4994822;28;20211;-70
2022/04/10 01:37:27;;;;;;;75.00;10.30;;;;;;;;;;4990740;28;20221;-69
2022/04/10 01:39:53;;;;;;;48.03;7.03;;;;;;;;;;4998765;28;20201;-72
2022/04/10 01:42:19;;;;;;;69.77;9.87;;;;;;;;;;4991866;28;20188;-70
2022/04/10 01:44:45;;;;;;;71.93;10.17;;;;;;;;;;4994060;28;20178;-71
2022/04/10 01:47:11;;;;;;;66.23;9.63;;;;;;;;;;4992470;28;20662;-68
2022/04/10 01:49:37;;;;;;;84.63;11.87;;;;;;;;;;4992594;28;20267;-69
2022/04/10 01:52:04;;;;;;;105.43;14.87;;;;;;;;;;4992249;28;20264;-69
2022/04/10 01:54:31;;;;;;;60.80;8.80;;;;;;;;;;4995859;28;20188;-74
2022/04/10 01:56:57;;;;;;;101.90;13.90;;;;;;;;;;4992342;28;20195;-69
2022/04/10 01:59:23;;;;;;;41.77;6.30;;;;;;;;;;4996060;28;20197;-69
2022/04/10 02:01:49;;;;;;;81.17;11.23;;;;;;;;;;4991228;28;20192;-69
2022/04/10 02:04:15;;;;;;;47.13;6.87;;;;;;;;;;4996607;28;20181;-68
2022/04/10 02:06:41;;;;;;;52.17;7.37;;;;;;;;;;4992402;28;20648;-70
2022/04/10 02:09:08;;;;;;;90.77;12.50;;;;;;;;;;4994016;28;20215;-69
2022/04/10 02:11:33;;;;;;;64.53;8.97;;;;;;;;;;4995758;28;20196;-69
2022/04/10 02:13:59;;;;;;;107.47;14.37;;;;;;;;;;4995955;28;20188;-68
2022/04/10 02:16:25;;;;;;;46.97;6.77;;;;;;;;;;4993783;28;20862;-68
2022/04/10 02:18:51;;;;;;;84.73;11.30;;;;;;;;;;4996117;28;20239;-68
2022/04/10 02:21:17;;;;;;;36.50;5.47;;;;;;;;;;4992195;28;20186;-68
2022/04/10 02:23:44;;;;;;;80.33;11.10;;;;;;;;;;4997565;28;20630;-70
2022/04/10 02:26:11;;;;;;;103.77;14.03;;;;;;;;;;4996787;28;20270;-68
2022/04/10 02:28:37;;;;;;;63.07;8.80;;;;;;;;;;4999728;28;20690;-68
2022/04/10 02:31:03;;;;;;;87.57;12.13;;;;;;;;;;4990665;28;20192;-71
2022/04/10 02:33:29;;;;;;;71.67;10.00;;;;;;;;;;5003422;28;20319;-70
2022/04/10 02:35:55;;;;;;;73.50;10.30;;;;;;;;;;4990010;28;20193;-69
2022/04/10 02:38:21;;;;;;;47.13;6.93;;;;;;;;;;4991266;28;20279;-69
2022/04/10 02:40:47;;;;;;;63.13;8.70;;;;;;;;;;4994016;28;20185;-68
2022/04/10 02:43:14;;;;;;;64.17;9.13;;;;;;;;;;4992040;28;20186;-68
2022/04/10 02:45:43;;;;;;;59.57;8.30;;;;;;;;;;4992484;28;20703;-70
2022/04/10 02:48:10;;;;;;;81.83;11.33;;;;;;;;;;4993685;28;20212;-68
2022/04/10 02:50:36;;;;;;;81.03;11.10;;;;;;;;;;4985607;28;20240;-69
2022/04/10 02:53:02;;;;;;;70.60;10.00;;;;;;;;;;4995030;28;20193;-69
2022/04/10 02:55:28;;;;;;;59.97;8.27;;;;;;;;;;4995476;28;20207;-71
2022/04/10 02:57:54;;;;;;;81.97;11.23;;;;;;;;;;4998408;28;20213;-68
2022/04/10 03:00:21;;;;;;;76.10;10.40;;;;;;;;;;4991476;28;20189;-69
2022/04/10 03:02:47;;;;;;;87.77;11.83;;;;;;;;;;5000715;28;20184;-69
2022/04/10 03:05:13;;;;;;;104.13;14.03;;;;;;;;;;4986828;28;20803;-70
2022/04/10 03:07:40;;;;;;;89.27;12.03;;;;;;;;;;4990663;28;20177;-68
2022/04/10 03:10:07;;;;;;;94.23;12.83;;;;;;;;;;4995070;28;20989;-68
2022/04/10 03:12:32;;;;;;;71.00;9.80;;;;;;;;;;4991997;28;20197;-70
2022/04/10 03:14:59;;;;;;;92.00;12.60;;;;;;;;;;4989687;28;20259;-68
2022/04/10 03:17:24;;;;;;;71.03;9.97;;;;;;;;;;4994104;28;20216;-68
2022/04/10 03:19:50;;;;;;;113.33;15.03;;;;;;;;;;4994879;28;20212;-70
2022/04/10 03:22:16;;;;;;;53.03;7.73;;;;;;;;;;4992692;28;20216;-69
2022/04/10 03:24:42;;;;;;;79.20;10.77;;;;;;;;;;4989718;28;20236;-69
2022/04/10 03:27:08;;;;;;;80.97;11.13;;;;;;;;;;4994136;28;20224;-69
2022/04/10 03:29:34;;;;;;;81.63;11.13;;;;;;;;;;4989255;28;20682;-71
2022/04/10 03:32:00;;;;;;;183.43;24.10;;;;;;;;;;4989899;28;20641;-70
2022/04/10 03:34:26;;;;;;;122.97;16.43;;;;;;;;;;4988616;28;20185;-68
2022/04/10 03:36:52;;;;;;;57.67;7.93;;;;;;;;;;4995219;28;20185;-68
2022/04/10 03:39:18;;;;;;;62.03;8.77;;;;;;;;;;4993087;28;20581;-68
2022/04/10 03:41:44;;;;;;;55.87;7.97;;;;;;;;;;4996004;28;20188;-71
2022/04/10 03:44:10;;;;;;;87.07;11.80;;;;;;;;;;4993358;28;20209;-68
2022/04/10 03:46:36;;;;;;;47.47;6.93;;;;;;;;;;4991385;28;20184;-68
2022/04/10 03:49:01;;;;;;;64.07;8.97;;;;;;;;;;4992674;28;20243;-68
2022/04/10 03:51:27;;;;;;;82.83;11.30;;;;;;;;;;4990684;28;20585;-68
2022/04/10 03:53:53;;;;;;;70.17;9.87;;;;;;;;;;4999483;28;20193;-69
2022/04/10 03:56:19;;;;;;;57.87;8.37;;;;;;;;;;4998962;28;20208;-69
2022/04/10 03:58:45;;;;;;;54.40;7.77;;;;;;;;;;4994582;28;20963;-70
2022/04/10 04:01:11;;;;;;;90.50;12.50;;;;;;;;;;4993782;28;20706;-69
2022/04/10 04:03:37;;;;;;;72.93;10.17;;;;;;;;;;4998273;28;20185;-68
2022/04/10 04:06:03;;;;;;;66.13;9.40;;;;;;;;;;4998744;28;20197;-68
2022/04/10 04:08:29;;;;;;;73.47;10.20;;;;;;;;;;4996989;28;20213;-69
2022/04/10 04:10:55;;;;;;;102.67;14.33;;;;;;;;;;4995458;28;20247;-68
2022/04/10 04:13:21;;;;;;;67.97;9.53;;;;;;;;;;5000270;28;20188;-71
2022/04/10 04:15:47;;;;;;;52.80;7.67;;;;;;;;;;4997760;28;20197;-68
2022/04/10 04:18:13;;;;;;;33.07;5.13;;;;;;;;;;4995814;28;20216;-68
2022/04/10 04:20:39;;;;;;;23.47;3.73;;;;;;;;;;4999001;28;20552;-68
2022/04/10 04:23:05;;;;;;;97.00;13.53;;;;;;;;;;4996007;28;20185;-69
2022/04/10 04:25:31;;;;;;;84.93;11.83;;;;;;;;;;4999153;28;20253;-68
2022/04/10 04:27:57;;;;;;;109.00;14.97;;;;;;;;;;4997581;28;20298;-69
2022/04/10 04:30:23;;;;;;;67.23;9.40;;;;;;;;;;4999270;28;20283;-69
2022/04/10 04:32:51;;;;;;;75.73;10.50;;;;;;;;;;5010324;28;20283;-69
2022/04/10 04:35:17;;;;;;;32.60;5.03;;;;;;;;;;4990306;28;20269;-70
2022/04/10 04:37:43;;;;;;;55.80;7.93;;;;;;;;;;4996727;28;20205;-71
2022/04/10 04:40:11;;;;;;;80.50;11.13;;;;;;;;;;4993241;28;20179;-69
2022/04/10 04:42:37;;;;;;;42.17;6.23;;;;;;;;;;5010937;28;20193;-69
2022/04/10 04:45:04;;;;;;;96.60;13.57;;;;;;;;;;4991885;28;20193;-68
2022/04/10 04:47:30;;;;;;;93.07;12.73;;;;;;;;;;4989203;28;20617;-71
2022/04/10 04:49:56;;;;;;;73.53;10.37;;;;;;;;;;4991807;28;20213;-69
2022/04/10 04:52:22;;;;;;;53.00;7.80;;;;;;;;;;4998758;28;20220;-68
2022/04/10 04:54:48;;;;;;;75.30;10.67;;;;;;;;;;4994812;28;20205;-69
2022/04/10 04:57:14;;;;;;;49.60;7.33;;;;;;;;;;4995276;28;20194;-68
2022/04/10 04:59:40;;;;;;;86.57;12.07;;;;;;;;;;4990202;28;20305;-68
2022/04/10 05:02:05;;;;;;;117.20;15.90;;;;;;;;;;4999963;28;20261;-70
2022/04/10 05:04:31;;;;;;;74.13;10.33;;;;;;;;;;4992780;28;20178;-68
2022/04/10 05:06:57;;;;;;;78.43;11.27;;;;;;;;;;4996518;28;20193;-68
2022/04/10 05:09:23;;;;;;;76.73;10.93;;;;;;;;;;4996231;28;20236;-69
2022/04/10 05:11:49;;;;;;;117.73;15.77;;;;;;;;;;4994546;28;20280;-72
2022/04/10 05:14:15;;;;;;;29.63;4.77;;;;;;;;;;4996126;28;20189;-68
2022/04/10 05:16:41;;;;;;;28.20;4.50;;;;;;;;;;5004871;28;20604;-68
2022/04/10 05:19:07;;;;;;;59.70;8.57;;;;;;;;;;4994023;28;20217;-71
2022/04/10 05:21:33;;;;;;;72.37;10.33;;;;;;;;;;4994734;28;20197;-69
2022/04/10 05:23:59;;;;;;;62.97;8.87;;;;;;;;;;5003740;28;20204;-68
2022/04/10 05:26:25;;;;;;;45.97;7.00;;;;;;;;;;4995652;28;20192;-71
2022/04/10 05:28:51;;;;;;;90.77;12.57;;;;;;;;;;4994478;28;20213;-71
2022/04/10 05:31:17;;;;;;;71.47;10.20;;;;;;;;;;4991518;28;20193;-69
2022/04/10 05:33:42;;;;;;;59.20;8.57;;;;;;;;;;4997455;28;20185;-69
2022/04/10 05:36:08;;;;;;;75.77;10.83;;;;;;;;;;4991028;28;20192;-70
2022/04/10 05:38:34;;;;;;;52.50;7.80;;;;;;;;;;4995788;28;20945;-68
2022/04/10 05:41:01;;;;;;;79.47;11.30;;;;;;;;;;5000593;28;20180;-68
2022/04/10 05:43:27;;;;;;;88.37;12.27;;;;;;;;;;4990942;28;20185;-69
2022/04/10 05:45:53;;;;;;;54.67;8.10;;;;;;;;;;5003002;28;20693;-67
2022/04/10 05:48:19;;;;;;;34.07;5.37;;;;;;;;;;4992628;28;20212;-67
2022/04/10 05:50:45;;;;;;;104.53;14.53;;;;;;;;;;4998274;28;20190;-69
2022/04/10 05:53:11;;;;;;;76.77;10.90;;;;;;;;;;4997865;28;20196;-65
2022/04/10 05:55:37;;;;;;;50.27;7.17;;;;;;;;;;4997361;28;20254;-65
2022/04/10 05:58:04;;;;;;;101.53;13.83;;;;;;;;;;4990072;28;20221;-66
2022/04/10 06:00:30;;;;;;;48.93;7.13;;;;;;;;;;4982040;28;20849;-67
2022/04/10 06:02:56;;;;;;;63.87;9.33;;;;;;;;;;4987869;28;20286;-67
2022/04/10 06:05:22;;;;;;;94.63;13.30;;;;;;;;;;4997442;28;20190;-66
2022/04/10 06:07:48;;;;;;;64.83;9.10;;;;;;;;;;4996057;28;20276;-66
2022/04/10 06:10:15;;;;;;;70.83;9.97;;;;;;;;;;4994718;28;20192;-66
2022/04/10 06:12:41;;;;;;;72.17;10.13;;;;;;;;;;4989684;28;20204;-66
2022/04/10 06:15:07;;;;;;;135.70;18.33;;;;;;;;;;4990610;28;20216;-67
2022/04/10 06:17:33;;;;;;;120.97;16.90;;;;;;;;;;4986308;28;20236;-66
2022/04/10 06:19:59;;;;;;;103.13;14.87;;;;;;;;;;4992318;28;20297;-70
2022/04/10 06:22:25;;;;;;;55.00;8.10;;;;;;;;;;4990396;28;20189;-66
2022/04/10 06:24:51;;;;;;;98.37;13.53;;;;;;;;;;4991918;28;20188;-65
2022/04/10 06:27:19;;;;;;;53.90;8.00;;;;;;;;;;4996669;28;20201;-66
2022/04/10 06:29:45;;;;;;;55.43;8.13;;;;;;;;;;4995102;28;20220;-67
2022/04/10 06:32:11;;;;;;;71.50;10.33;;;;;;;;;;4988964;28;20180;-66
2022/04/10 06:34:37;;;;;;;83.80;11.83;;;;;;;;;;5013872;28;20185;-67
2022/04/10 06:37:03;;;;;;;95.60;13.83;;;;;;;;;;4991561;28;20189;-67
2022/04/10 06:39:28;;;;;;;106.53;15.53;;;;;;;;;;4991448;28;20240;-66
2022/04/10 06:41:54;;;;;;;92.53;12.87;;;;;;;;;;4995057;28;20185;-66
2022/04/10 06:44:20;;;;;;;29.10;4.73;;;;;;;;;;4995762;28;20186;-66
2022/04/10 06:46:46;;;;;;;84.17;11.73;;;;;;;;;;4994177;28;20208;-66
2022/04/10 06:49:13;;;;;;;78.50;11.17;;;;;;;;;;4994531;28;20394;-67
2022/04/10 06:51:39;;;;;;;91.33;13.17;;;;;;;;;;4982979;28;20189;-66
2022/04/10 06:54:05;;;;;;;128.17;18.93;;;;;;;;;;4991438;28;20610;-67
2022/04/10 06:56:31;;;;;;;65.20;9.60;;;;;;;;;;4993564;28;20267;-68
2022/04/10 06:58:57;;;;;;;176.40;25.63;;;;;;;;;;4994010;28;20883;-66
2022/04/10 07:01:23;;;;;;;78.47;11.53;;;;;;;;;;4987348;28;20188;-66
2022/04/10 07:03:49;;;;;;;71.77;10.50;;;;;;;;;;4989955;28;20189;-67
2022/04/10 07:06:15;;;;;;;161.90;22.33;;;;;;;;;;4989982;28;20670;-63
2022/04/10 07:08:41;;;;;;;26.57;4.37;;;;;;;;;;4988060;28;20243;-62
2022/04/10 07:11:07;;;;;;;129.43;17.97;;;;;;;;;;4990951;28;20873;-66
2022/04/10 07:13:33;;;;;;;108.83;15.33;;;;;;;;;;4992487;28;20185;-63
2022/04/10 07:15:59;;;;;;;90.37;13.07;;;;;;;;;;4986779;28;20322;-66
2022/04/10 07:18:25;;;;;;;65.60;9.63;;;;;;;;;;4987178;28;20291;-62
2022/04/10 07:20:51;;;;;;;149.53;20.50;;;;;;;;;;4987265;28;20685;-60
2022/04/10 07:26:06;;;;;;;67.30;10.10;;;;;;;;;;4999214;28;20242;-62
2022/04/10 07:28:32;;;;;;;57.90;8.57;;;;;;;;;;4998895;28;20906;-62
2022/04/10 07:30:59;;;;;;;113.07;16.30;;;;;;;;;;5000382;28;20197;-63
2022/04/10 07:33:25;;;;;;;80.30;11.43;;;;;;;;;;4995227;28;20239;-64
2022/04/10 07:35:51;;;;;;;126.63;17.30;;;;;;;;;;4996570;28;20296;-63
2022/04/10 07:38:17;;;;;;;107.60;15.23;;;;;;;;;;4992540;28;23362;-63
2022/04/10 07:40:43;;;;;;;41.57;6.33;;;;;;;;;;5001320;28;20188;-62
2022/04/10 07:43:09;;;;;;;145.13;20.57;;;;;;;;;;4996303;28;20204;-63
2022/04/10 07:48:20;;;;;;;82.37;11.90;;;;;;;;;;5000636;28;20300;-62
2022/04/10 07:50:46;;;;;;;98.97;13.90;;;;;;;;;;4993106;28;20209;-63
2022/04/10 07:53:12;;;;;;;34.77;5.50;;;;;;;;;;4997557;28;20247;-61
2022/04/10 07:55:38;;;;;;;29.43;4.70;;;;;;;;;;4993237;28;20190;-59
2022/04/10 07:58:04;;;;;;;55.47;8.23;;;;;;;;;;4993354;28;20244;-65
2022/04/10 08:00:32;;;;;;;31.63;5.10;;;;;;;;;;5003087;28;20273;-64
2022/04/10 08:02:58;;;;;;;116.67;16.40;;;;;;;;;;5001612;28;21452;-64
2022/04/10 08:05:24;;;;;;;116.20;16.30;;;;;;;;;;4987838;28;20682;-64
2022/04/10 08:07:50;;;;;;;108.17;15.23;;;;;;;;;;4991266;28;20188;-63
2022/04/10 08:10:16;;;;;;;75.27;11.10;;;;;;;;;;4996906;28;20666;-64
2022/04/10 08:12:43;;;;;;;77.63;11.40;;;;;;;;;;4996248;28;21212;-65
2022/04/10 08:15:09;;;;;;;125.20;17.97;;;;;;;;;;4995841;28;20212;-66
2022/04/10 08:17:35;;;;;;;37.57;6.13;;;;;;;;;;4992806;28;20832;-67
2022/04/10 08:20:04;;;;;;;134.40;20.33;;;;;;;;;;4996533;28;20216;-64
2022/04/10 08:22:30;;;;;;;35.63;5.87;;;;;;;;;;4999658;28;20185;-64
2022/04/10 08:24:56;;;;;;;73.57;11.40;;;;;;;;;;5001336;28;20182;-66
2022/04/10 08:27:22;;;;;;;105.23;15.77;;;;;;;;;;5010337;28;20208;-67
2022/04/10 08:29:48;;;;;;;73.33;11.03;;;;;;;;;;5000479;28;20258;-67
2022/04/10 08:32:13;;;;;;;45.53;7.40;;;;;;;;;;5000686;28;20185;-64
2022/04/10 08:34:39;;;;;;;115.53;17.23;;;;;;;;;;4993729;28;20190;-62
2022/04/10 08:37:05;;;;;;;51.00;8.03;;;;;;;;;;4989505;28;20647;-64
2022/04/10 08:39:32;;;;;;;35.53;5.80;;;;;;;;;;4994771;28;20229;-62
2022/04/10 08:42:00;;;;;;;118.13;17.40;;;;;;;;;;4995315;28;20711;-62
2022/04/10 08:44:27;;;;;;;93.07;14.30;;;;;;;;;;4994536;28;20190;-61
2022/04/10 08:46:53;;;;;;;110.80;17.00;;;;;;;;;;4995931;28;20190;-61
2022/04/10 08:49:19;;;;;;;38.33;6.90;;;;;;;;;;4995779;28;20328;-63
2022/04/10 08:51:45;;;;;;;81.83;13.83;;;;;;;;;;4993599;28;20234;-63
2022/04/10 08:54:13;;;;;;;124.20;22.70;;;;;;;;;;4995300;28;20564;-64
2022/04/10 08:56:39;;;;;;;125.27;22.33;;;;;;;;;;4992676;28;20727;-64
2022/04/10 08:59:05;;;;;;;122.60;22.63;;;;;;;;;;4992172;28;20220;-65
2022/04/10 09:01:31;;;;;;;90.57;16.87;;;;;;;;;;4992340;28;20264;-65
2022/04/10 09:03:57;;;;;;;109.97;21.30;;;;;;;;;;4994994;28;20216;-65
2022/04/10 09:06:23;;;;;;;80.50;16.50;;;;;;;;;;4992928;28;20196;-65
2022/04/10 09:08:49;;;;;;;170.93;36.27;;;;;;;;;;4991298;28;20213;-65
2022/04/10 09:11:15;;;;;;;144.23;37.77;;;;;;;;;;4990054;28;21253;-65
2022/04/10 09:13:46;;;;;;;90.47;32.30;;;;;;;;;;4992288;28;20291;-64
2022/04/10 09:16:18;;;;;;;83.17;16.43;;;;;;;;;;4997920;28;20816;-64
2022/04/10 09:18:49;;;;;;;132.30;29.47;;;;;;;;;;4995278;28;20223;-64
2022/04/10 09:21:16;;;;;;;59.47;17.10;;;;;;;;;;4993314;28;20279;-65
2022/04/10 09:23:45;;;;;;;104.80;39.93;;;;;;;;;;5013792;28;20189;-63
2022/04/10 09:26:11;;;;;;;141.87;33.40;;;;;;;;;;4993243;28;20177;-65
2022/04/10 09:28:42;;;;;;;115.97;44.47;;;;;;;;;;4997366;28;20229;-65
2022/04/10 09:31:24;;;;;;;136.63;34.63;;;;;;;;;;4985412;28;21443;-66
2022/04/10 09:33:52;;;;;;;164.60;72.23;;;;;;;;;;4993076;28;20208;-64
2022/04/10 09:36:33;;;;;;;137.20;75.03;;;;;;;;;;4991605;28;20208;-64
2022/04/10 09:38:59;;;;;;;132.83;29.13;;;;;;;;;;5002662;28;20287;-66
2022/04/10 09:41:25;;;;;;;82.27;17.53;;;;;;;;;;4993914;28;20186;-65
2022/04/10 09:43:51;;;;;;;69.40;15.57;;;;;;;;;;4989716;28;20181;-66
2022/04/10 09:46:17;;;;;;;134.10;31.37;;;;;;;;;;4987284;28;20194;-66
2022/04/10 09:48:43;;;;;;;90.73;20.63;;;;;;;;;;4987995;28;20204;-66
2022/04/10 09:51:10;;;;;;;145.17;34.90;;;;;;;;;;4990718;28;20192;-66
2022/04/10 09:53:36;;;;;;;40.63;11.03;;;;;;;;;;4999250;28;20221;-65
2022/04/10 09:56:03;;;;;;;155.23;41.90;;;;;;;;;;4994900;28;20208;-66
2022/04/10 09:58:30;;;;;;;111.20;53.80;;;;;;;;;;4994315;28;20610;-66
2022/04/10 10:00:57;;;;;;;101.27;44.03;;;;;;;;;;4992780;28;20331;-66
2022/04/10 10:03:24;;;;;;;98.07;55.53;;;;;;;;;;4997258;28;20252;-65
2022/04/10 10:05:56;;;;;;;143.97;83.67;;;;;;;;;;4994273;28;20213;-65
2022/04/10 10:08:23;;;;;;;150.17;83.30;;;;;;;;;;4999102;28;20204;-66
2022/04/10 10:10:49;;;;;;;110.77;61.33;;;;;;;;;;5004127;28;20188;-65
2022/04/10 10:13:15;;;;;;;150.03;76.23;;;;;;;;;;4994986;28;20181;-65
2022/04/10 10:15:42;;;;;;;137.97;82.23;;;;;;;;;;4999289;28;20196;-65
2022/04/10 10:18:09;;;;;;;156.47;87.93;;;;;;;;;;4994617;28;20208;-65
2022/04/10 10:20:36;;;;;;;145.30;78.53;;;;;;;;;;4993628;28;20190;-65
2022/04/10 10:23:04;;;;;;;140.30;81.83;;;;;;;;;;4997753;28;20203;-65
2022/04/10 10:25:34;;;;;;;166.93;95.93;;;;;;;;;;4996357;28;20200;-66
2022/04/10 10:28:15;;;;;;;139.37;81.90;;;;;;;;;;4987741;28;20200;-66
2022/04/10 10:31:00;;;;;;;159.23;89.60;;;;;;;;;;5000686;28;20192;-66
2022/04/10 10:33:26;;;;;;;76.53;21.27;;;;;;;;;;5000716;28;20188;-66
2022/04/10 10:35:53;;;;;;;124.87;57.77;;;;;;;;;;4992671;28;20189;-65
2022/04/10 10:38:20;;;;;;;127.90;73.23;;;;;;;;;;4986486;28;20213;-66
2022/04/10 10:40:46;;;;;;;145.13;81.03;;;;;;;;;;5001802;28;20184;-65
2022/04/10 10:43:12;;;;;;;135.73;82.40;;;;;;;;;;4998316;28;23815;-66
2022/04/10 10:45:38;;;;;;;150.50;77.27;;;;;;;;;;4988578;28;20419;-65
2022/04/10 10:48:25;;;;;;;130.30;67.80;;;;;;;;;;4989062;28;20213;-65
2022/04/10 10:50:52;;;;;;;150.53;48.77;;;;;;;;;;4987423;28;20193;-65
2022/04/10 10:53:38;;;;;;;44.40;28.07;;;;;;;;;;4998994;28;20677;-65
2022/04/10 10:56:05;;;;;;;118.37;55.93;;;;;;;;;;4995826;28;20185;-65
2022/04/10 10:58:32;;;;;;;85.70;57.10;;;;;;;;;;4997460;28;20690;-65
2022/04/10 11:01:04;;;;;;;158.13;85.10;;;;;;;;;;4995138;28;20185;-65
2022/04/10 11:03:30;;;;;;;112.90;75.67;;;;;;;;;;5005259;28;20475;-65
2022/04/10 11:06:06;;;;;;;177.27;100.13;;;;;;;;;;4993786;28;20184;-65
2022/04/10 11:08:41;;;;;;;152.80;88.47;;;;;;;;;;4998879;28;20212;-65
2022/04/10 11:11:07;;;;;;;235.60;117.17;;;;;;;;;;4996018;28;20314;-65
2022/04/10 11:13:42;;;;;;;218.53;116.07;;;;;;;;;;5000212;28;20442;-65
2022/04/10 11:16:12;;;;;;;218.10;114.00;;;;;;;;;;5000774;28;20188;-65
2022/04/10 11:18:42;;;;;;;174.43;97.53;;;;;;;;;;4997829;28;20220;-67
2022/04/10 11:21:10;;;;;;;175.30;83.03;;;;;;;;;;4994408;28;21002;-65
2022/04/10 11:23:41;;;;;;;71.87;15.53;;;;;;;;;;4999346;28;21116;-65
2022/04/10 11:26:12;;;;;;;93.17;20.07;;;;;;;;;;4997548;28;20258;-65
2022/04/10 11:28:54;;;;;;;111.47;21.47;;;;;;;;;;4997532;28;20216;-65
2022/04/10 11:31:48;;;;;;;72.83;14.60;;;;;;;;;;4991314;28;20181;-65
2022/04/10 11:34:19;;;;;;;101.00;20.00;;;;;;;;;;4990285;28;20685;-66
2022/04/10 11:36:45;;;;;;;85.40;17.33;;;;;;;;;;4996919;28;20186;-67
2022/04/10 11:39:11;;;;;;;87.20;18.77;;;;;;;;;;5001811;28;20232;-66
2022/04/10 11:41:38;;;;;;;101.03;20.43;;;;;;;;;;4996207;28;20267;-67
2022/04/10 11:44:07;;;;;;;124.67;25.67;;;;;;;;;;4994452;28;20178;-66
2022/04/10 11:46:34;;;;;;;72.80;14.93;;;;;;;;;;4996149;28;20185;-66
2022/04/10 11:49:00;;;;;;;164.13;34.53;;;;;;;;;;5000669;28;20309;-67
2022/04/10 11:51:26;;;;;;;103.50;20.43;;;;;;;;;;4999743;28;20869;-65
2022/04/10 11:53:59;;;;;;;110.83;22.87;;;;;;;;;;4993653;28;20188;-65
2022/04/10 11:56:25;;;;;;;59.60;13.17;;;;;;;;;;5011375;28;20197;-65
2022/04/10 11:58:51;;;;;;;78.50;16.07;;;;;;;;;;4991611;28;20220;-65
2022/04/10 12:01:20;;;;;;;45.27;9.90;;;;;;;;;;4992144;28;20177;-65
2022/04/10 12:03:49;;;;;;;96.93;19.73;;;;;;;;;;4997511;28;20303;-65
2022/04/10 12:06:21;;;;;;;57.67;12.67;;;;;;;;;;5007169;28;20182;-65
2022/04/10 12:08:48;;;;;;;110.53;22.73;;;;;;;;;;4993791;28;20220;-66
2022/04/10 12:11:14;;;;;;;81.10;18.63;;;;;;;;;;4995789;28;20185;-65
2022/04/10 12:13:40;;;;;;;85.43;19.43;;;;;;;;;;4997075;28;20705;-65
2022/04/10 12:16:16;;;;;;;193.73;43.43;;;;;;;;;;4990327;28;20189;-65
2022/04/10 12:19:00;;;;;;;62.30;13.63;;;;;;;;;;4991258;28;20277;-65
2022/04/10 12:21:26;;;;;;;115.47;23.70;;;;;;;;;;5007900;28;20181;-64
2022/04/10 12:23:59;;;;;;;91.63;19.17;;;;;;;;;;4995172;28;20255;-65
2022/04/10 12:26:26;;;;;;;131.77;29.67;;;;;;;;;;4998540;28;20232;-66
2022/04/10 12:28:52;;;;;;;143.50;29.77;;;;;;;;;;4994533;28;20208;-65
2022/04/10 12:31:19;;;;;;;85.27;17.47;;;;;;;;;;4988723;28;20330;-65
2022/04/10 12:33:46;;;;;;;84.70;17.93;;;;;;;;;;4988138;28;20193;-66
2022/04/10 12:36:20;;;;;;;142.37;30.73;;;;;;;;;;4981921;28;20189;-66
2022/04/10 12:38:46;;;;;;;69.97;15.90;;;;;;;;;;5002530;28;20727;-65
2022/04/10 12:41:12;;;;;;;146.27;39.17;;;;;;;;;;4998241;28;20230;-67
2022/04/10 12:43:38;;;;;;;149.73;51.60;;;;;;;;;;4993025;28;20304;-65
2022/04/10 12:46:11;;;;;;;185.17;87.40;;;;;;;;;;4994235;28;20903;-65
2022/04/10 12:48:37;;;;;;;225.77;115.33;;;;;;;;;;4989028;28;20245;-65
2022/04/10 12:51:07;;;;;;;196.57;102.97;;;;;;;;;;4989483;28;20238;-66
2022/04/10 12:53:33;;;;;;;280.10;129.57;;;;;;;;;;4992736;28;20203;-66
2022/04/10 12:55:59;;;;;;;278.13;138.83;;;;;;;;;;4991800;28;20188;-67
2022/04/10 12:58:31;;;;;;;252.00;127.77;;;;;;;;;;4988876;28;20216;-64
2022/04/10 13:00:57;;;;;;;284.93;144.17;;;;;;;;;;4991645;28;20275;-64
2022/04/10 13:03:24;;;;;;;270.13;136.07;;;;;;;;;;4991275;28;20181;-65
2022/04/10 13:06:00;;;;;;;343.10;158.83;;;;;;;;;;4991457;28;20511;-67
2022/04/10 13:08:30;;;;;;;347.57;163.50;;;;;;;;;;4992468;28;20578;-69
2022/04/10 13:10:58;;;;;;;325.07;159.50;;;;;;;;;;4984219;28;20268;-66
2022/04/10 13:13:24;;;;;;;236.13;124.00;;;;;;;;;;4993823;28;20191;-66
2022/04/10 13:15:50;;;;;;;242.50;120.33;;;;;;;;;;5002633;28;20189;-68
2022/04/10 13:18:16;;;;;;;249.77;122.27;;;;;;;;;;4999333;28;20282;-65
2022/04/10 13:20:42;;;;;;;243.13;121.90;;;;;;;;;;4993068;28;20186;-66
2022/04/10 13:23:08;;;;;;;167.70;100.87;;;;;;;;;;4994064;28;20187;-65
2022/04/10 13:28:42;;;;;;;52.80;7.47;;;;;;;;;;5106114;27;21058;-49
2022/04/10 13:31:08;;;;;;;65.43;8.47;;;;;;;;;;5103712;28;20192;-50
2022/04/10 13:33:34;;;;;;;73.83;9.77;;;;;;;;;;5106251;28;20165;-49
2022/04/10 13:36:00;;;;;;;44.23;6.23;;;;;;;;;;5090921;28;20201;-49
2022/04/10 13:38:26;;;;;;;43.90;6.43;;;;;;;;;;5085489;28;20267;-50
2022/04/10 13:40:52;;;;;;;17.43;2.93;;;;;;;;;;5085910;28;20174;-50
2022/04/10 13:43:18;;;;;;;57.80;8.80;;;;;;;;;;5079342;28;20174;-50
2022/04/10 13:45:44;;;;;;;48.87;8.73;;;;;;;;;;5082936;28;20573;-49
2022/04/10 13:48:10;;;;;;;54.37;10.00;;;;;;;;;;5076365;28;20206;-50
2022/04/10 13:50:36;;;;;;;57.73;11.20;;;;;;;;;;5070555;28;20191;-49
2022/04/10 13:53:02;;;;;;;23.27;4.97;;;;;;;;;;5085250;28;20650;-50
2022/04/10 13:55:28;;;;;;;50.40;9.97;;;;;;;;;;5093619;28;20198;-50
2022/04/10 13:57:54;;;;;;;43.90;8.17;;;;;;;;;;5077593;28;20569;-50
2022/04/10 14:00:20;;;;;;;52.63;9.93;;;;;;;;;;5073424;28;20226;-50
2022/04/10 14:02:46;;;;;;;52.03;9.73;;;;;;;;;;5080524;28;20194;-50
2022/04/10 14:05:12;;;;;;;53.00;10.05;;;;;;;;;;5075647;28;20194;-50
2022/04/10 14:07:38;;;;;;;42.67;8.43;;;;;;;;;;5093026;28;20206;-50
2022/04/10 14:10:04;;;;;;;81.53;15.00;;;;;;;;;;5065005;28;20735;-50
2022/04/10 14:12:30;;;;;;;66.80;12.52;;;;;;;;;;5081033;28;20182;-50
2022/04/10 14:14:56;;;;;;;49.50;8.93;;;;;;;;;;5078186;28;20182;-50
2022/04/10 14:17:22;;;;;;;59.60;10.68;;;;;;;;;;5085499;28;20198;-50
2022/04/10 14:19:48;;;;;;;74.20;12.73;;;;;;;;;;5085094;28;20171;-49
2022/04/10 14:22:14;;;;;;;59.15;10.40;;;;;;;;;;5085385;28;20548;-49
2022/04/10 14:24:40;;;;;;;61.05;10.05;;;;;;;;;;5085222;28;20627;-50
2022/04/10 14:27:06;;;;;;;63.92;11.07;;;;;;;;;;5085412;28;20210;-50